Time;durP1;ratioP1;P1;durP2;ratioP2;P2;SDS_P1;SDS_P2;PMS_P1;PMS_P2;Temp;Humidity;BMP_temperature;BMP_pressure;BME280_temperature;BME280_humidity;BME280_pressure;Samples;Min_cycle;Max_cycle;Signal;HPM_P1;HPM_P2
2022/01/07 00:00:16;;;;;;;10.43;1.63;;;;;;;-149.78;100.00;50485.13;5076946;28;20028;-65
2022/01/07 00:02:47;;;;;;;16.25;4.13;;;;;;;-149.78;100.00;50551.63;5076905;28;20706;-65
2022/01/07 00:05:13;;;;;;;9.35;1.98;;;;;;;-149.78;100.00;50500.78;5076819;28;20036;-65
2022/01/07 00:07:39;;;;;;;6.22;1.52;;;;;;;-149.78;100.00;50526.22;5076960;28;20024;-65
2022/01/07 00:10:07;;;;;;;6.57;1.50;;;;;;;-149.78;100.00;50506.66;5076591;28;20135;-65
2022/01/07 00:12:33;;;;;;;4.63;1.42;;;;;;;-149.78;100.00;50514.47;5076637;28;20052;-65
2022/01/07 00:14:59;;;;;;;4.63;1.58;;;;;;;-149.78;100.00;50522.28;5076599;28;20071;-65
2022/01/07 00:17:24;;;;;;;7.97;1.13;;;;;;;-149.78;100.00;50541.84;5076715;28;20040;-65
2022/01/07 00:19:50;;;;;;;12.57;2.00;;;;;;;-149.78;100.00;50524.25;5076455;28;20061;-65
2022/01/07 00:22:16;;;;;;;5.68;1.25;;;;;;;-149.78;100.00;50528.16;5076259;28;20082;-65
2022/01/07 00:24:41;;;;;;;10.75;1.58;;;;;;;-149.78;100.00;50518.38;5076601;28;20456;-65
2022/01/07 00:27:07;;;;;;;10.52;2.00;;;;;;;-149.78;100.00;50514.47;5076500;28;20043;-65
2022/01/07 00:29:33;;;;;;;7.22;1.17;;;;;;;-149.78;100.00;50537.94;5058742;28;20032;-65
2022/01/07 00:31:58;;;;;;;13.30;1.48;;;;;;;-149.78;100.00;50518.38;5076781;28;20040;-65
2022/01/07 00:34:24;;;;;;;8.75;1.52;;;;;;;-149.78;100.00;50559.47;5076305;28;20032;-65
2022/01/07 00:36:50;;;;;;;5.72;1.30;;;;;;;-149.78;100.00;50526.22;5076286;28;20021;-65
2022/01/07 00:39:15;;;;;;;7.07;1.30;;;;;;;-149.78;100.00;50512.50;5058279;28;20373;-65
2022/01/07 00:41:41;;;;;;;7.60;1.20;;;;;;;-149.78;100.00;50534.03;5076018;28;20353;-65
2022/01/07 00:44:07;;;;;;;4.32;1.20;;;;;;;-149.78;100.00;50491.00;5075972;28;20039;-65
2022/01/07 00:46:33;;;;;;;5.47;1.38;;;;;;;-149.78;100.00;50518.38;5075928;28;20032;-65
2022/01/07 00:48:59;;;;;;;6.65;1.23;;;;;;;-149.78;100.00;50514.47;5075832;28;20040;-65
2022/01/07 00:51:24;;;;;;;9.18;1.15;;;;;;;-149.78;100.00;50526.22;5076116;28;20033;-65
2022/01/07 00:53:50;;;;;;;6.85;1.00;;;;;;;-149.78;100.00;50547.72;5075817;28;20498;-65
2022/01/07 00:56:15;;;;;;;4.68;0.90;;;;;;;-149.78;100.00;50534.03;5076037;28;20098;-65
2022/01/07 00:58:41;;;;;;;3.28;0.85;;;;;;;-149.78;100.00;50500.78;5075970;28;20040;-65
2022/01/07 01:01:07;;;;;;;12.57;1.45;;;;;;;-149.78;100.00;50510.56;5074501;28;20043;-65
2022/01/07 01:03:32;;;;;;;4.38;1.00;;;;;;;-149.78;100.00;50549.69;5057542;28;20363;-65
2022/01/07 01:05:59;;;;;;;3.72;1.02;;;;;;;-149.78;100.00;50518.38;5075650;28;20484;-65
2022/01/07 01:08:26;;;;;;;8.90;1.33;;;;;;;-149.78;100.00;50518.38;5075720;28;20056;-65
2022/01/07 01:10:52;;;;;;;7.18;0.90;;;;;;;-149.78;100.00;50530.13;5058018;28;20037;-65
2022/01/07 01:13:19;;;;;;;3.30;1.10;;;;;;;-149.78;100.00;50557.50;5057676;28;20557;-65
2022/01/07 01:15:45;;;;;;;4.38;0.80;;;;;;;-149.78;100.00;50502.75;5074845;28;20035;-65
2022/01/07 01:18:12;;;;;;;1.52;0.75;;;;;;;-149.78;100.00;50545.75;5074970;28;20059;-65
2022/01/07 01:20:38;;;;;;;10.48;1.17;;;;;;;-149.78;100.00;50522.28;5075263;28;20364;-66
2022/01/07 01:23:03;;;;;;;10.63;1.40;;;;;;;-149.78;100.00;50518.38;5074863;28;20423;-65
2022/01/07 01:25:29;;;;;;;9.13;1.52;;;;;;;-149.78;100.00;50518.38;5075338;28;20059;-65
2022/01/07 01:27:56;;;;;;;5.30;1.20;;;;;;;-149.78;100.00;50534.03;5057325;28;20084;-65
2022/01/07 01:30:26;;;;;;;3.70;1.08;;;;;;;-149.78;100.00;50541.84;5074874;28;20415;-65
2022/01/07 01:32:53;;;;;;;3.00;1.02;;;;;;;-149.78;100.00;50498.81;5075206;28;20033;-65
2022/01/07 01:35:20;;;;;;;2.42;0.90;;;;;;;-149.78;100.00;50506.66;5057469;28;20028;-65
2022/01/07 01:37:47;;;;;;;8.25;1.25;;;;;;;-149.78;100.00;50537.94;5075358;28;20032;-65
2022/01/07 01:40:14;;;;;;;7.45;1.33;;;;;;;-149.78;100.00;50522.28;5074988;28;20115;-65
2022/01/07 01:42:40;;;;;;;7.65;1.05;;;;;;;-149.78;100.00;50530.13;5075229;28;20089;-65
2022/01/07 01:45:08;;;;;;;5.32;1.17;;;;;;;-149.78;100.00;50553.59;5074880;28;20421;-62
2022/01/07 01:47:34;;;;;;;5.75;1.40;;;;;;;-149.78;100.00;50522.28;5075064;28;20044;-62
2022/01/07 01:50:00;;;;;;;3.88;1.10;;;;;;;-149.78;100.00;50549.69;5074925;28;20032;-64
2022/01/07 01:52:26;;;;;;;4.53;0.90;;;;;;;-149.78;100.00;50518.38;5074882;28;20028;-64
2022/01/07 01:54:52;;;;;;;7.50;1.10;;;;;;;-149.78;100.00;50549.69;5074867;28;20479;-64
2022/01/07 01:57:17;;;;;;;4.00;1.02;;;;;;;-149.78;100.00;50518.38;5074692;28;20133;-62
2022/01/07 01:59:43;;;;;;;9.50;1.08;;;;;;;-149.78;100.00;50557.50;5074888;28;20380;-64
2022/01/07 02:02:09;;;;;;;7.63;1.65;;;;;;;-149.78;100.00;50561.41;5074652;28;20063;-64
2022/01/07 02:04:38;;;;;;;4.30;1.10;;;;;;;-149.78;100.00;50541.84;5074643;28;20443;-64
2022/01/07 02:07:07;;;;;;;3.47;1.02;;;;;;;-149.78;100.00;50545.75;5074559;28;20078;-65
2022/01/07 02:09:35;;;;;;;4.05;1.10;;;;;;;-149.78;100.00;50526.22;5074619;28;20039;-65
2022/01/07 02:12:06;;;;;;;10.20;1.10;;;;;;;-149.78;100.00;50535.97;5074122;28;20032;-65
2022/01/07 02:14:34;;;;;;;8.07;1.00;;;;;;;-149.78;100.00;50518.38;5074155;28;20032;-65
2022/01/07 02:17:08;;;;;;;10.23;1.42;;;;;;;-149.78;100.00;50551.63;5074616;28;20035;-65
2022/01/07 02:19:35;;;;;;;5.43;1.00;;;;;;;-149.78;100.00;50502.75;5056773;28;20028;-65
2022/01/07 02:22:01;;;;;;;5.70;1.00;;;;;;;-149.78;100.00;50489.03;5071542;28;20152;-65
2022/01/07 02:24:26;;;;;;;4.93;1.17;;;;;;;-149.78;100.00;50541.84;5071057;28;20045;-65
2022/01/07 02:26:55;;;;;;;12.05;2.00;;;;;;;-149.78;100.00;50502.75;5073870;28;20117;-65
2022/01/07 02:29:21;;;;;;;6.97;1.38;;;;;;;-149.78;100.00;50522.28;5074192;28;20465;-65
2022/01/07 02:31:48;;;;;;;6.53;1.00;;;;;;;-149.78;100.00;50530.13;5073894;28;20029;-65
2022/01/07 02:34:15;;;;;;;8.30;1.42;;;;;;;-149.78;100.00;50494.91;5074220;28;20032;-65
2022/01/07 02:36:41;;;;;;;4.25;1.15;;;;;;;-149.78;100.00;50537.94;5074102;28;20199;-65
2022/01/07 02:39:07;;;;;;;11.32;1.27;;;;;;;-149.78;100.00;50530.13;5056111;28;20064;-65
2022/01/07 02:41:33;;;;;;;8.82;1.20;;;;;;;-149.78;100.00;50496.88;5073679;28;20036;-65
2022/01/07 02:44:00;;;;;;;11.00;1.13;;;;;;;-149.78;100.00;50551.63;5073959;28;20063;-65
2022/01/07 02:46:25;;;;;;;9.40;1.60;;;;;;;-149.78;100.00;50532.06;5074077;28;20056;-65
2022/01/07 02:48:51;;;;;;;13.88;1.42;;;;;;;-149.78;100.00;50526.22;5074001;28;20530;-63
2022/01/07 02:51:17;;;;;;;9.70;1.23;;;;;;;-149.78;100.00;50522.28;5073696;28;20029;-63
2022/01/07 02:53:42;;;;;;;6.13;1.33;;;;;;;-149.78;100.00;50526.22;5073812;28;20044;-63
2022/01/07 02:56:08;;;;;;;5.00;1.17;;;;;;;-149.78;100.00;50524.25;5073768;28;20041;-63
2022/01/07 02:58:35;;;;;;;4.50;1.00;;;;;;;-149.78;100.00;50541.84;5073506;28;20044;-63
2022/01/07 03:01:00;;;;;;;5.45;1.17;;;;;;;-149.78;100.00;50506.66;5073488;28;20097;-63
2022/01/07 03:03:26;;;;;;;9.32;1.08;;;;;;;-149.78;100.00;50522.28;5073532;28;20070;-63
2022/01/07 03:05:51;;;;;;;6.18;1.52;;;;;;;-149.78;100.00;50514.47;5055718;28;20480;-63
2022/01/07 03:08:17;;;;;;;16.63;2.72;;;;;;;-149.78;100.00;50508.59;5073412;28;20040;-62
2022/01/07 03:10:43;;;;;;;5.10;1.05;;;;;;;-149.78;100.00;50535.97;5057087;28;20044;-63
2022/01/07 03:13:09;;;;;;;7.95;1.85;;;;;;;-149.78;100.00;50530.13;5053380;28;20025;-63
2022/01/07 03:15:37;;;;;;;7.07;1.30;;;;;;;-149.78;100.00;50559.47;5050217;28;20060;-63
2022/01/07 03:18:08;;;;;;;5.28;1.40;;;;;;;-149.78;100.00;50502.75;5073224;28;20036;-63
2022/01/07 03:20:38;;;;;;;7.57;1.33;;;;;;;-149.78;100.00;50559.47;5073468;28;20040;-63
2022/01/07 03:23:12;;;;;;;11.68;1.30;;;;;;;-149.78;100.00;50487.09;5072991;28;20045;-63
2022/01/07 03:25:43;;;;;;;4.75;1.08;;;;;;;-149.78;100.00;50541.84;5066414;28;20082;-63
2022/01/07 03:28:10;;;;;;;7.80;1.40;;;;;;;-149.78;100.00;50537.94;5054662;28;20059;-62
2022/01/07 03:30:36;;;;;;;5.65;1.02;;;;;;;-149.78;100.00;50532.06;5073127;28;20032;-63
2022/01/07 03:33:04;;;;;;;10.07;1.48;;;;;;;-149.78;100.00;50534.03;5073289;28;20033;-63
2022/01/07 03:35:30;;;;;;;9.43;1.55;;;;;;;-149.78;100.00;50565.31;5055368;28;20036;-63
2022/01/07 03:37:56;;;;;;;11.75;1.50;;;;;;;-149.78;100.00;50524.25;5071405;28;20575;-63
2022/01/07 03:40:21;;;;;;;7.82;1.35;;;;;;;-149.78;100.00;50502.75;5050407;28;20123;-63
2022/01/07 03:42:50;;;;;;;8.13;1.38;;;;;;;-149.78;100.00;50545.75;5071282;28;20033;-63
2022/01/07 03:45:18;;;;;;;7.88;1.10;;;;;;;-149.78;100.00;50522.28;5072733;28;20123;-63
2022/01/07 03:47:44;;;;;;;7.97;1.20;;;;;;;-149.78;100.00;50559.47;5072837;28;20107;-63
2022/01/07 03:50:13;;;;;;;5.97;1.90;;;;;;;-149.78;100.00;50573.16;5072869;28;20036;-63
2022/01/07 03:52:39;;;;;;;6.07;1.35;;;;;;;-149.78;100.00;50545.75;5067495;28;20025;-63
2022/01/07 03:55:10;;;;;;;9.20;1.30;;;;;;;-149.78;100.00;50512.50;5061092;28;20521;-63
2022/01/07 03:57:36;;;;;;;8.05;1.38;;;;;;;-149.78;100.00;50518.38;5072729;28;20051;-63
2022/01/07 04:00:06;;;;;;;9.43;1.45;;;;;;;-149.78;100.00;50530.13;5072885;28;20127;-63
2022/01/07 04:02:31;;;;;;;6.53;1.20;;;;;;;-149.78;100.00;50545.75;5054911;28;20115;-63
2022/01/07 04:04:57;;;;;;;5.32;1.20;;;;;;;-149.78;100.00;50537.94;5072820;28;20131;-63
2022/01/07 04:07:23;;;;;;;15.85;1.65;;;;;;;-149.78;100.00;50549.69;5055221;28;20040;-63
2022/01/07 04:09:49;;;;;;;6.53;1.08;;;;;;;-149.78;100.00;50524.25;5064934;28;20048;-62
2022/01/07 04:12:15;;;;;;;13.18;1.38;;;;;;;-149.78;100.00;50551.63;5054989;28;20035;-63
2022/01/07 04:14:40;;;;;;;8.25;1.33;;;;;;;-149.78;100.00;50549.69;5072029;28;20051;-63
2022/01/07 04:17:07;;;;;;;4.50;0.77;;;;;;;-149.78;100.00;50526.22;5072171;28;20043;-63
2022/01/07 04:19:33;;;;;;;5.80;1.17;;;;;;;-149.78;100.00;50526.22;5072572;28;20497;-63
2022/01/07 04:22:00;;;;;;;8.82;1.20;;;;;;;-149.78;100.00;50506.66;5072176;28;20053;-63
2022/01/07 04:24:26;;;;;;;6.32;1.15;;;;;;;-149.78;100.00;50534.03;5072220;28;20047;-62
2022/01/07 04:26:51;;;;;;;9.88;1.40;;;;;;;-149.78;100.00;50510.56;5072041;28;20037;-63
2022/01/07 04:29:17;;;;;;;12.05;1.55;;;;;;;-149.78;100.00;50539.91;5072290;28;20036;-63
2022/01/07 04:31:43;;;;;;;7.47;0.98;;;;;;;-149.78;100.00;50512.50;5071961;28;20032;-63
2022/01/07 04:34:09;;;;;;;8.75;1.17;;;;;;;-149.78;100.00;50553.59;5071479;28;20407;-63
2022/01/07 04:36:34;;;;;;;4.28;1.08;;;;;;;-149.78;100.00;50545.75;5074747;28;20209;-63
2022/01/07 04:39:00;;;;;;;12.95;1.55;;;;;;;-149.78;100.00;50551.63;5058016;28;20043;-63
2022/01/07 04:41:25;;;;;;;4.60;1.10;;;;;;;-149.78;100.00;50520.34;5076121;28;20029;-63
2022/01/07 04:43:51;;;;;;;4.63;0.60;;;;;;;-149.78;100.00;50524.25;5075371;28;20345;-63
2022/01/07 04:46:17;;;;;;;4.90;1.08;;;;;;;-149.78;100.00;50541.84;5075262;28;20085;-63
2022/01/07 04:48:42;;;;;;;3.83;0.95;;;;;;;-149.78;100.00;50534.03;5075895;28;20032;-63
2022/01/07 04:51:08;;;;;;;6.72;0.98;;;;;;;-149.78;100.00;50565.31;5076082;28;20093;-63
2022/01/07 04:53:34;;;;;;;4.85;1.00;;;;;;;-149.78;100.00;50510.56;5076011;28;20033;-63
2022/01/07 04:56:00;;;;;;;4.13;1.08;;;;;;;-149.78;100.00;50522.28;5058347;28;20067;-63
2022/01/07 04:58:26;;;;;;;5.70;1.92;;;;;;;-149.78;100.00;50526.22;5076057;28;20539;-63
2022/01/07 05:00:51;;;;;;;4.45;1.10;;;;;;;-149.78;100.00;50500.78;5075643;28;20040;-63
2022/01/07 05:03:17;;;;;;;3.92;1.10;;;;;;;-149.78;100.00;50541.84;5075787;28;20055;-63
2022/01/07 05:05:48;;;;;;;4.43;1.15;;;;;;;-149.78;100.00;50537.94;5075567;28;20400;-63
2022/01/07 05:08:15;;;;;;;8.57;1.40;;;;;;;-149.78;100.00;50537.94;5075726;28;20033;-63
2022/01/07 05:10:42;;;;;;;5.72;1.20;;;;;;;-149.78;100.00;50524.25;5075645;28;20048;-63
2022/01/07 05:13:08;;;;;;;8.52;1.40;;;;;;;-149.78;100.00;50530.13;5075859;28;20032;-63
2022/01/07 05:15:35;;;;;;;4.60;1.13;;;;;;;-149.78;100.00;50545.75;5075497;28;20040;-63
2022/01/07 05:18:01;;;;;;;3.10;1.00;;;;;;;-149.78;100.00;50522.28;5075716;28;20082;-63
2022/01/07 05:20:27;;;;;;;9.45;1.38;;;;;;;-149.78;100.00;50506.66;5075436;28;20135;-63
2022/01/07 05:22:52;;;;;;;9.30;1.38;;;;;;;-149.78;100.00;50514.47;5075093;28;20070;-63
2022/01/07 05:25:19;;;;;;;6.25;1.05;;;;;;;-149.78;100.00;50588.78;5074850;28;20040;-62
2022/01/07 05:27:44;;;;;;;3.58;0.88;;;;;;;-149.78;100.00;50549.69;5074436;28;20062;-63
2022/01/07 05:30:12;;;;;;;3.38;0.93;;;;;;;-149.78;100.00;50565.31;5074365;28;20043;-63
2022/01/07 05:32:40;;;;;;;4.65;0.90;;;;;;;-149.78;100.00;50522.28;5074475;28;20559;-63
2022/01/07 05:35:07;;;;;;;13.32;1.00;;;;;;;-149.78;100.00;50537.94;5074701;28;20085;-63
2022/01/07 05:37:33;;;;;;;8.13;1.33;;;;;;;-149.78;100.00;50541.84;5074968;28;20387;-63
2022/01/07 05:39:59;;;;;;;7.80;1.10;;;;;;;-149.78;100.00;50592.72;5075144;28;20028;-63
2022/01/07 05:42:25;;;;;;;7.15;1.10;;;;;;;-149.78;100.00;50553.59;5056819;28;20044;-63
2022/01/07 05:44:51;;;;;;;6.03;1.30;;;;;;;-149.78;100.00;50518.38;5057088;28;20396;-63
2022/01/07 05:47:17;;;;;;;4.68;1.10;;;;;;;-149.78;100.00;50534.03;5074555;28;20047;-63
2022/01/07 05:49:42;;;;;;;10.90;1.30;;;;;;;-149.78;100.00;50526.22;5074822;28;20371;-63
2022/01/07 05:52:08;;;;;;;6.70;0.95;;;;;;;-149.78;100.00;50549.69;5074935;28;20038;-63
2022/01/07 05:54:35;;;;;;;11.60;1.30;;;;;;;-149.78;100.00;50549.69;5074868;28;20040;-63
2022/01/07 05:57:02;;;;;;;3.72;1.08;;;;;;;-149.78;100.00;50512.50;5074878;28;20037;-63
2022/01/07 05:59:27;;;;;;;12.93;1.52;;;;;;;-149.78;100.00;50573.16;5074844;28;20047;-62
2022/01/07 06:01:53;;;;;;;7.00;1.23;;;;;;;-149.78;100.00;50541.84;5074719;28;20052;-63
2022/01/07 06:04:18;;;;;;;6.22;1.05;;;;;;;-149.78;100.00;50534.03;5074531;28;20111;-63
2022/01/07 06:06:44;;;;;;;8.10;0.90;;;;;;;-149.78;100.00;50530.13;5074531;28;20447;-63
2022/01/07 06:09:10;;;;;;;4.05;0.70;;;;;;;-149.78;100.00;50526.22;5074481;28;20040;-63
2022/01/07 06:11:35;;;;;;;9.77;1.38;;;;;;;-149.78;100.00;50526.22;5074795;28;20040;-63
2022/01/07 06:14:01;;;;;;;6.82;1.27;;;;;;;-149.78;100.00;50502.75;5056554;28;20533;-63
2022/01/07 06:16:27;;;;;;;7.35;1.30;;;;;;;-149.78;100.00;50522.28;5073582;28;20435;-63
2022/01/07 06:18:57;;;;;;;4.95;0.93;;;;;;;-149.78;100.00;50510.56;5074132;28;20032;-63
2022/01/07 06:21:23;;;;;;;6.05;0.90;;;;;;;-149.78;100.00;50584.88;5074125;28;20597;-63
2022/01/07 06:23:49;;;;;;;1.23;0.65;;;;;;;-149.78;100.00;50537.94;5074255;28;20211;-62
2022/01/07 06:26:15;;;;;;;1.85;0.82;;;;;;;-149.78;100.00;50532.06;5074206;28;20036;-63
2022/01/07 06:28:40;;;;;;;3.95;0.77;;;;;;;-149.78;100.00;50514.47;5074226;28;20188;-62
2022/01/07 06:31:06;;;;;;;11.70;1.27;;;;;;;-149.78;100.00;50549.69;5074059;28;20044;-63
2022/01/07 06:33:33;;;;;;;3.20;1.05;;;;;;;-149.78;100.00;50557.50;5074270;28;20036;-62
2022/01/07 06:35:58;;;;;;;7.93;1.00;;;;;;;-149.78;100.00;50530.13;5074121;28;20037;-62
2022/01/07 06:38:24;;;;;;;11.30;1.20;;;;;;;-149.78;100.00;50487.09;5056223;28;20039;-62
2022/01/07 06:40:49;;;;;;;4.03;0.98;;;;;;;-149.78;100.00;50543.81;5073965;28;20071;-62
2022/01/07 06:43:15;;;;;;;5.78;0.90;;;;;;;-149.78;100.00;50532.06;5073975;28;20036;-62
2022/01/07 06:45:41;;;;;;;7.07;1.30;;;;;;;-149.78;100.00;50526.22;5073900;28;20079;-62
2022/01/07 06:48:07;;;;;;;8.27;1.20;;;;;;;-149.78;100.00;50522.28;5073755;28;20068;-62
2022/01/07 06:50:32;;;;;;;3.80;0.73;;;;;;;-149.78;100.00;50565.31;5073696;28;20040;-63
2022/01/07 06:52:58;;;;;;;8.57;1.33;;;;;;;-149.78;100.00;50557.50;5073500;28;20032;-63
2022/01/07 06:55:24;;;;;;;4.72;0.95;;;;;;;-149.78;100.00;50532.06;5073581;28;20033;-63
2022/01/07 06:57:49;;;;;;;5.10;1.02;;;;;;;-149.78;100.00;50555.53;5059623;28;20048;-63
2022/01/07 07:00:15;;;;;;;5.53;0.80;;;;;;;-149.78;100.00;50545.75;5059570;28;20037;-63
2022/01/07 07:02:41;;;;;;;3.88;1.08;;;;;;;-149.78;100.00;50543.81;5057814;28;20037;-64
2022/01/07 07:05:06;;;;;;;7.05;1.20;;;;;;;-149.78;100.00;50573.16;5040066;28;20047;-64
2022/01/07 07:07:32;;;;;;;5.18;0.98;;;;;;;-149.78;100.00;50534.03;5060951;28;20028;-64
2022/01/07 07:09:59;;;;;;;4.07;0.95;;;;;;;-149.78;100.00;50534.03;5058272;28;20388;-64
2022/01/07 07:12:25;;;;;;;7.63;1.10;;;;;;;-149.78;100.00;50522.28;5054856;28;20039;-64
2022/01/07 07:14:50;;;;;;;6.63;1.10;;;;;;;-149.78;100.00;50553.59;5054817;28;20025;-64
2022/01/07 07:17:16;;;;;;;3.20;0.82;;;;;;;-149.78;100.00;50547.72;4997870;28;20025;-64
2022/01/07 07:19:42;;;;;;;4.45;0.77;;;;;;;-149.78;100.00;50549.69;5060789;28;20028;-64
2022/01/07 07:22:08;;;;;;;7.15;1.13;;;;;;;-149.78;100.00;50526.22;5061711;28;20041;-64
2022/01/07 07:24:34;;;;;;;7.93;0.80;;;;;;;-149.78;100.00;50543.81;5058211;28;20029;-65
2022/01/07 07:26:59;;;;;;;7.07;1.00;;;;;;;-149.78;100.00;50565.31;5039429;28;20120;-65
2022/01/07 07:29:25;;;;;;;5.40;0.98;;;;;;;-149.78;100.00;50522.28;5062924;28;20377;-65
2022/01/07 07:31:55;;;;;;;3.08;0.82;;;;;;;-149.78;100.00;50518.38;5057571;28;20029;-66
2022/01/07 07:37:19;;;;;;;2.38;0.70;;;;;;;-149.78;100.00;50530.13;5022202;28;20077;-65
2022/01/07 07:39:47;;;;;;;2.90;0.60;;;;;;;-149.78;100.00;50528.16;5060032;28;20098;-62
2022/01/07 07:42:13;;;;;;;4.18;0.70;;;;;;;-149.78;100.00;50561.41;5039447;28;20045;-63
2022/01/07 07:44:39;;;;;;;4.72;0.70;;;;;;;-149.78;100.00;50518.38;5054976;28;20055;-62
2022/01/07 07:47:05;;;;;;;3.50;0.77;;;;;;;-149.78;100.00;50508.59;5054890;28;20380;-63
2022/01/07 07:49:31;;;;;;;6.50;1.00;;;;;;;-149.78;100.00;50565.31;5050728;28;20683;-63
2022/01/07 07:51:56;;;;;;;3.67;0.70;;;;;;;-149.78;100.00;50502.75;5037805;28;20446;-63
2022/01/07 07:54:24;;;;;;;2.05;0.68;;;;;;;-149.78;100.00;50561.41;5071446;28;20391;-63
2022/01/07 07:56:50;;;;;;;6.40;0.85;;;;;;;-149.78;100.00;50565.31;5039132;28;20025;-63
2022/01/07 07:59:15;;;;;;;2.78;0.88;;;;;;;-149.78;100.00;50530.13;5054298;28;20423;-63
2022/01/07 08:01:42;;;;;;;4.13;0.70;;;;;;;-149.78;100.00;50537.94;5041697;28;20495;-63
2022/01/07 08:04:11;;;;;;;4.72;0.98;;;;;;;-149.78;100.00;50553.59;5059851;28;20066;-63
2022/01/07 08:06:36;;;;;;;2.70;0.88;;;;;;;-149.78;100.00;50545.75;5057043;28;20055;-63
2022/01/07 08:09:03;;;;;;;5.05;1.00;;;;;;;-149.78;100.00;50518.38;5059306;28;20550;-64
2022/01/07 08:11:33;;;;;;;3.60;0.68;;;;;;;-149.78;100.00;50528.16;5058359;28;20086;-64
2022/01/07 08:16:43;;;;;;;3.83;0.75;;;;;;;-149.78;100.00;50553.59;5076064;28;20028;-63
2022/01/07 08:19:09;;;;;;;6.85;0.90;;;;;;;-149.78;100.00;50579.00;5049786;28;20048;-63
2022/01/07 08:21:35;;;;;;;4.05;0.70;;;;;;;-149.78;100.00;50516.44;5046947;28;20147;-63
2022/01/07 08:24:01;;;;;;;4.40;0.88;;;;;;;-149.78;100.00;50547.72;5065023;28;20391;-63
2022/01/07 08:26:27;;;;;;;2.13;0.88;;;;;;;-149.78;100.00;50553.59;5040089;28;20120;-63
2022/01/07 08:29:00;;;;;;;3.15;1.00;;;;;;;-149.78;100.00;50514.47;5066555;28;20488;-63
2022/01/07 08:34:53;;;;;;;2.63;1.30;;;;;;;-149.78;100.00;50561.41;5067708;28;20460;-64
2022/01/07 08:36:57;;;;;;;3.80;1.00;;;;;;;-149.78;100.00;50553.59;5065169;28;20060;-63
2022/01/07 08:39:24;;;;;;;4.38;0.80;;;;;;;-149.78;100.00;50577.06;5075474;28;20037;-63
2022/01/07 08:41:51;;;;;;;5.05;0.90;;;;;;;-149.78;100.00;50541.84;5075590;28;20056;-63
2022/01/07 08:44:16;;;;;;;10.13;0.98;;;;;;;-149.78;100.00;50530.13;5076072;28;20396;-63
2022/01/07 08:46:43;;;;;;;11.82;1.40;;;;;;;-149.78;100.00;50545.75;5075790;28;20036;-63
2022/01/07 08:49:09;;;;;;;8.90;1.42;;;;;;;-149.78;100.00;50549.69;5075858;28;20049;-63
2022/01/07 08:51:35;;;;;;;5.45;1.10;;;;;;;-149.78;100.00;50506.66;5075799;28;20063;-63
2022/01/07 08:54:01;;;;;;;5.40;0.88;;;;;;;-149.78;100.00;50553.59;5075887;28;20037;-64
2022/01/07 08:56:27;;;;;;;5.03;1.02;;;;;;;-149.78;100.00;50524.25;5037898;28;20035;-63
2022/01/07 08:58:56;;;;;;;5.25;1.10;;;;;;;-149.78;100.00;50573.16;5058232;28;20095;-63
2022/01/07 09:01:24;;;;;;;3.13;0.90;;;;;;;-149.78;100.00;50541.84;5070992;28;20040;-63
2022/01/07 09:03:50;;;;;;;10.23;1.23;;;;;;;-149.78;100.00;50573.16;5075323;28;20391;-63
2022/01/07 09:06:17;;;;;;;7.38;1.05;;;;;;;-149.78;100.00;50528.16;5075422;28;20032;-63
2022/01/07 09:08:44;;;;;;;2.63;0.80;;;;;;;-149.78;100.00;50510.56;5075180;28;20476;-63
2022/01/07 09:11:11;;;;;;;4.88;0.77;;;;;;;-149.78;100.00;50541.84;5075228;28;20051;-63
2022/01/07 09:13:36;;;;;;;3.33;0.82;;;;;;;-149.78;100.00;50547.72;5075376;28;20064;-64
2022/01/07 09:16:03;;;;;;;10.00;1.73;;;;;;;-149.78;100.00;50524.25;5075146;28;20075;-64
2022/01/07 09:18:31;;;;;;;5.28;1.17;;;;;;;-149.78;100.00;50510.56;5075518;28;20043;-65
2022/01/07 09:20:58;;;;;;;6.25;1.30;;;;;;;-149.78;100.00;50532.06;5068761;28;20040;-65
2022/01/07 09:23:24;;;;;;;6.53;0.95;;;;;;;-149.78;100.00;50561.41;5067273;28;20365;-65
2022/01/07 09:25:50;;;;;;;6.68;1.10;;;;;;;-149.78;100.00;50553.59;5055469;28;20567;-65
2022/01/07 09:28:15;;;;;;;4.07;1.27;;;;;;;-149.78;100.00;50535.97;5075147;28;20043;-66
2022/01/07 09:30:41;;;;;;;10.80;1.17;;;;;;;-149.78;100.00;50545.75;5074887;28;20047;-66
2022/01/07 09:33:07;;;;;;;3.58;1.52;;;;;;;-149.78;100.00;50530.13;5075124;28;20025;-66
2022/01/07 09:35:32;;;;;;;5.82;1.13;;;;;;;-149.78;100.00;50534.03;5075070;28;20052;-66
2022/01/07 09:37:59;;;;;;;4.20;1.10;;;;;;;-149.78;100.00;50557.50;5069937;28;20071;-66
2022/01/07 09:40:25;;;;;;;7.72;1.13;;;;;;;-149.78;100.00;50557.50;5075066;28;20036;-66
2022/01/07 09:42:53;;;;;;;6.05;1.10;;;;;;;-149.78;100.00;50559.47;5074803;28;20033;-66
2022/01/07 09:45:20;;;;;;;2.45;1.13;;;;;;;-149.78;100.00;50573.16;5074930;28;20037;-66
2022/01/07 09:47:46;;;;;;;6.53;1.52;;;;;;;-149.78;100.00;50565.31;5074838;28;20581;-66
2022/01/07 09:50:12;;;;;;;4.15;1.25;;;;;;;-149.78;100.00;50557.50;5074543;28;20036;-66
2022/01/07 09:52:39;;;;;;;6.05;1.38;;;;;;;-149.78;100.00;50584.88;5075028;28;20098;-66
2022/01/07 09:55:05;;;;;;;8.25;1.40;;;;;;;-149.78;100.00;50543.81;5074365;28;20123;-66
2022/01/07 09:57:32;;;;;;;5.10;1.50;;;;;;;-149.78;100.00;50530.13;5074668;28;20127;-66
2022/01/07 09:59:59;;;;;;;4.25;1.80;;;;;;;-149.78;100.00;50545.75;5068525;28;20043;-66
2022/01/07 10:02:25;;;;;;;8.13;1.20;;;;;;;-149.78;100.00;50561.41;5074609;28;20054;-65
2022/01/07 10:05:14;;;;;;;3.60;1.08;;;;;;;-149.78;100.00;50584.88;5074504;28;20483;-66
2022/01/07 10:07:40;;;;;;;8.45;1.67;;;;;;;-149.78;100.00;50573.16;5074424;28;20029;-67
2022/01/07 10:10:10;;;;;;;3.83;1.05;;;;;;;-149.78;100.00;50537.94;5068092;28;20485;-65
2022/01/07 10:13:04;;;;;;;4.90;1.88;;;;;;;-149.78;100.00;50573.16;5064517;28;20035;-65
2022/01/07 10:15:32;;;;;;;6.65;1.60;;;;;;;-149.78;100.00;50545.75;5074295;28;20036;-66
2022/01/07 10:18:02;;;;;;;2.72;1.20;;;;;;;-149.78;100.00;50549.69;5053661;28;20044;-65
2022/01/07 10:20:30;;;;;;;3.78;1.45;;;;;;;-149.78;100.00;50606.41;5062732;28;20042;-64
2022/01/07 10:23:03;;;;;;;6.45;1.85;;;;;;;-149.78;100.00;50553.59;5058775;28;20045;-65
2022/01/07 10:25:31;;;;;;;3.70;1.20;;;;;;;-149.78;100.00;50530.13;5059921;28;20329;-65
2022/01/07 10:28:17;;;;;;;5.80;1.65;;;;;;;-149.78;100.00;50580.97;5023158;28;20033;-65
2022/01/07 10:30:54;;;;;;;5.00;1.70;;;;;;;-149.78;100.00;50510.56;5073794;28;20484;-65
2022/01/07 10:33:22;;;;;;;4.25;1.35;;;;;;;-149.78;100.00;50534.03;5073830;28;20025;-65
2022/01/07 10:36:13;;;;;;;6.65;1.23;;;;;;;-149.78;100.00;50557.50;5073760;28;20051;-65
2022/01/07 10:38:49;;;;;;;6.75;1.67;;;;;;;-149.78;100.00;50545.75;5067644;28;20052;-65
2022/01/07 10:41:15;;;;;;;9.77;1.50;;;;;;;-149.78;100.00;50557.50;5058152;28;20074;-65
2022/01/07 10:43:42;;;;;;;5.03;1.55;;;;;;;-149.78;100.00;50545.75;5055599;28;20120;-65
2022/01/07 10:46:07;;;;;;;6.13;1.77;;;;;;;-149.78;100.00;50532.06;5073316;28;20044;-64
2022/01/07 10:48:54;;;;;;;5.95;2.20;;;;;;;-149.78;100.00;50592.72;5045237;28;20473;-64
2022/01/07 10:51:23;;;;;;;9.23;1.67;;;;;;;-149.78;100.00;50549.69;5058468;28;20108;-65
2022/01/07 10:53:53;;;;;;;7.63;1.88;;;;;;;-149.78;100.00;50510.56;5067730;28;20115;-64
2022/01/07 10:56:21;;;;;;;3.55;1.23;;;;;;;-149.78;100.00;50535.97;5061432;28;20423;-64
2022/01/07 10:58:46;;;;;;;8.52;1.85;;;;;;;-149.78;100.00;50541.84;5061587;28;20028;-64
2022/01/07 11:01:21;;;;;;;9.25;1.70;;;;;;;-149.78;100.00;50522.28;5058397;28;20091;-64
2022/01/07 11:03:48;;;;;;;10.32;2.22;;;;;;;-149.78;100.00;50563.38;5058223;28;20032;-64
2022/01/07 11:06:14;;;;;;;5.85;1.85;;;;;;;-149.78;100.00;50530.13;5059930;28;20025;-61
2022/01/07 11:08:50;;;;;;;6.57;2.00;;;;;;;-149.78;100.00;50549.69;5061457;28;20110;-61
2022/01/07 11:11:15;;;;;;;7.05;2.33;;;;;;;-149.78;100.00;50553.59;5061270;28;20033;-60
2022/01/07 11:13:42;;;;;;;9.15;2.22;;;;;;;-149.78;100.00;50561.41;5054747;28;20124;-60
2022/01/07 11:16:08;;;;;;;8.25;2.58;;;;;;;-149.78;100.00;50545.75;5073106;28;20558;-60